Time;durP1;ratioP1;P1;durP2;ratioP2;P2;SDS_P1;SDS_P2;PMS_P1;PMS_P2;Temp;Humidity;BMP_temperature;BMP_pressure;BME280_temperature;BME280_humidity;BME280_pressure;Samples;Min_cycle;Max_cycle;Signal;HPM_P1;HPM_P2
2022/09/19 00:01:46;;;;;;;4.40;2.10;;;;;;;8.93;76.18;99053.70;130530;1267;108775;-75
2022/09/19 00:04:52;;;;;;;4.50;2.20;;;;;;;8.92;76.16;99047.67;130486;1265;108796;-75
2022/09/19 00:07:57;;;;;;;5.20;2.30;;;;;;;8.90;76.33;99047.17;130419;1267;108860;-75
2022/09/19 00:11:06;;;;;;;3.30;2.20;;;;;;;8.86;76.20;99054.53;130213;1267;108654;-75
2022/09/19 00:14:14;;;;;;;3.60;2.20;;;;;;;8.80;76.17;99054.09;130552;1267;108711;-74
2022/09/19 00:17:19;;;;;;;3.50;2.10;;;;;;;8.74;76.34;99054.40;130497;1267;108434;-75
2022/09/19 00:20:24;;;;;;;2.90;2.10;;;;;;;8.71;76.34;99056.16;130506;1267;108798;-76
2022/09/19 00:26:55;;;;;;;5.10;2.70;;;;;;;8.65;76.62;99056.63;130400;1268;108621;-76
2022/09/19 00:30:00;;;;;;;3.60;2.40;;;;;;;8.64;76.59;99049.64;130492;1267;108741;-75
2022/09/19 00:33:06;;;;;;;4.20;2.40;;;;;;;8.63;76.66;99050.27;130435;1267;108736;-74
2022/09/19 00:36:11;;;;;;;4.70;2.40;;;;;;;8.59;76.71;99049.92;130442;1267;108854;-76
2022/09/19 00:39:19;;;;;;;4.80;2.50;;;;;;;8.55;76.54;99047.70;130413;1267;108616;-76
2022/09/19 00:42:26;;;;;;;4.30;2.30;;;;;;;8.52;76.87;99048.38;130449;1267;108711;-75
2022/09/19 00:45:32;;;;;;;4.80;2.60;;;;;;;8.48;76.75;99055.73;130574;1267;108628;-76
2022/09/19 00:48:40;;;;;;;4.60;2.30;;;;;;;8.45;76.69;99057.63;130405;1268;108666;-76
2022/09/19 00:51:50;;;;;;;3.20;2.10;;;;;;;8.41;76.91;99058.52;130550;1268;108531;-77
2022/09/19 00:54:56;;;;;;;5.00;2.40;;;;;;;8.41;76.77;99057.48;130555;1267;108810;-76
2022/09/19 00:58:06;;;;;;;5.00;2.10;;;;;;;8.42;76.82;99058.13;130492;1268;108641;-75
2022/09/19 01:01:13;;;;;;;5.60;2.50;;;;;;;8.41;77.02;99058.17;129297;1268;1595561;-76
2022/09/19 01:04:21;;;;;;;4.50;2.50;;;;;;;8.38;77.01;99054.21;130513;1267;107444;-75
2022/09/19 01:07:48;;;;;;;4.30;2.40;;;;;;;8.33;77.12;99047.91;130486;1268;108785;-75
2022/09/19 01:11:11;;;;;;;3.80;2.00;;;;;;;8.29;77.25;99048.05;130410;1268;109017;-75
2022/09/19 01:14:39;;;;;;;3.40;2.00;;;;;;;8.23;77.29;99057.29;130587;1268;107722;-75
2022/09/19 01:17:48;;;;;;;4.70;2.40;;;;;;;8.22;77.50;99059.89;130357;1268;108641;-77
2022/09/19 01:24:59;;;;;;;6.20;2.60;;;;;;;8.25;77.44;99049.64;130381;1268;109691;-76
2022/09/19 01:28:20;;;;;;;4.00;2.50;;;;;;;8.22;77.48;99044.47;130409;1268;109002;-76
2022/09/19 01:31:36;;;;;;;5.60;2.50;;;;;;;8.19;77.63;99044.30;130676;1268;108683;-75
2022/09/19 01:34:45;;;;;;;3.80;2.40;;;;;;;8.14;77.46;99043.39;130419;1268;108865;-76
2022/09/19 01:38:00;;;;;;;4.20;2.50;;;;;;;8.12;77.72;99050.95;130552;1267;108885;-75
2022/09/19 01:41:09;;;;;;;4.60;2.30;;;;;;;8.07;77.60;99048.80;130465;1267;108674;-76
2022/09/19 01:44:20;;;;;;;5.20;2.40;;;;;;;8.05;77.79;99050.42;130538;1268;108801;-76
2022/09/19 01:47:36;;;;;;;5.50;2.40;;;;;;;8.02;78.03;99053.71;130469;1267;108884;-76
2022/09/19 01:51:02;;;;;;;6.20;2.50;;;;;;;8.05;78.01;99055.41;130539;1267;108864;-75
2022/09/19 01:54:25;;;;;;;4.20;2.50;;;;;;;8.05;77.94;99058.23;130497;1267;108748;-76
2022/09/19 01:57:41;;;;;;;4.50;2.50;;;;;;;8.03;78.11;99064.07;130547;1267;110343;-75
2022/09/19 02:00:53;;;;;;;4.30;2.40;;;;;;;8.00;78.19;99060.84;130468;1268;108267;-75
2022/09/19 02:04:06;;;;;;;3.80;2.30;;;;;;;7.94;78.33;99064.06;130452;1267;108769;-76
2022/09/19 02:07:20;;;;;;;4.40;2.20;;;;;;;7.86;78.41;99066.42;130483;1267;108742;-76
2022/09/19 02:10:31;;;;;;;4.20;2.20;;;;;;;7.87;78.74;99068.83;130523;1268;108840;-77
2022/09/19 02:13:43;;;;;;;6.10;2.20;;;;;;;7.92;78.55;99070.74;130520;1267;108684;-76
2022/09/19 02:17:03;;;;;;;5.40;2.30;;;;;;;7.98;78.80;99074.86;130369;1268;108848;-77
2022/09/19 02:20:13;;;;;;;4.40;2.60;;;;;;;8.01;78.50;99074.94;130500;1268;107546;-76
2022/09/19 02:23:22;;;;;;;4.40;2.40;;;;;;;8.04;78.73;99080.48;130515;1268;108961;-75
2022/09/19 02:26:30;;;;;;;5.00;2.30;;;;;;;8.06;78.78;99080.75;130460;1268;109114;-76
2022/09/19 02:29:44;;;;;;;5.40;2.10;;;;;;;8.13;78.87;99083.96;130534;1268;108883;-76
2022/09/19 02:32:53;;;;;;;4.00;2.30;;;;;;;8.19;78.92;99085.91;130563;1268;108794;-77
2022/09/19 02:36:09;;;;;;;3.40;2.00;;;;;;;8.24;78.74;99081.80;130577;1268;108855;-76
2022/09/19 02:39:21;;;;;;;4.50;2.70;;;;;;;8.31;78.80;99079.14;130432;1268;108880;-76
2022/09/19 02:42:46;;;;;;;4.30;2.60;;;;;;;8.34;78.86;99078.52;130629;1267;108977;-78
2022/09/19 02:45:55;;;;;;;3.20;2.00;;;;;;;8.33;78.80;99073.48;130442;1268;108652;-77
2022/09/19 02:49:10;;;;;;;5.30;2.60;;;;;;;8.30;78.77;99076.79;130362;1268;108862;-76
2022/09/19 02:52:19;;;;;;;5.40;2.10;;;;;;;8.19;78.82;99077.95;130409;1268;108664;-79
2022/09/19 02:55:29;;;;;;;4.70;2.40;;;;;;;8.12;78.88;99081.05;130344;1268;108870;-77
2022/09/19 02:58:40;;;;;;;4.60;2.50;;;;;;;8.06;78.99;99076.92;130415;1268;107769;-80
2022/09/19 03:01:50;;;;;;;3.50;2.20;;;;;;;7.98;79.05;99077.52;130590;1267;108908;-81
2022/09/19 03:05:02;;;;;;;5.80;2.60;;;;;;;7.96;78.90;99085.61;130502;1268;108969;-80
2022/09/19 03:08:15;;;;;;;5.40;2.80;;;;;;;7.96;79.29;99084.16;131697;1268;108822;-80
2022/09/19 03:11:24;;;;;;;6.70;2.70;;;;;;;7.93;79.19;99085.88;130812;1268;108653;-79
2022/09/19 03:14:32;;;;;;;3.50;2.60;;;;;;;7.87;79.21;99090.95;130732;1268;108855;-80
2022/09/19 03:17:43;;;;;;;5.00;2.40;;;;;;;7.79;79.17;99096.02;130688;1268;108895;-80
2022/09/19 03:20:53;;;;;;;3.50;2.40;;;;;;;7.72;79.57;99097.38;130566;1268;108893;-80
2022/09/19 03:24:00;;;;;;;3.30;2.30;;;;;;;7.64;79.67;99097.85;130469;1268;108896;-79
2022/09/19 03:27:06;;;;;;;8.10;3.50;;;;;;;7.63;79.26;99097.89;130484;1268;108707;-79
2022/09/19 03:30:15;;;;;;;4.30;2.80;;;;;;;7.66;79.63;99101.83;130575;1268;108696;-80
2022/09/19 03:33:21;;;;;;;5.90;2.80;;;;;;;7.68;79.66;99098.13;130520;1268;108763;-79
2022/09/19 03:36:33;;;;;;;4.80;2.90;;;;;;;7.66;79.57;99102.05;130531;1267;108902;-78
2022/09/19 03:39:39;;;;;;;4.70;2.90;;;;;;;7.63;79.56;99100.71;130496;1268;108802;-79
2022/09/19 03:42:45;;;;;;;6.20;2.90;;;;;;;7.59;79.86;99104.95;130458;1268;108848;-78
2022/09/19 03:45:51;;;;;;;4.10;2.30;;;;;;;7.56;79.65;99103.88;130527;1267;108741;-79
2022/09/19 03:48:57;;;;;;;4.70;3.00;;;;;;;7.55;80.03;99107.16;130494;1267;108859;-79
2022/09/19 03:52:03;;;;;;;5.00;2.90;;;;;;;7.52;80.04;99108.39;130379;1268;108658;-79
2022/09/19 03:55:10;;;;;;;5.10;2.90;;;;;;;7.52;79.73;99108.64;130336;1268;108799;-79
2022/09/19 03:58:17;;;;;;;4.20;3.20;;;;;;;7.51;79.89;99112.15;130474;1268;108722;-79
2022/09/19 04:01:23;;;;;;;7.00;3.40;;;;;;;7.46;79.68;99114.53;130433;1268;109027;-79
2022/09/19 04:04:31;;;;;;;5.50;3.90;;;;;;;7.44;79.73;99113.52;130578;1267;108792;-78
2022/09/19 04:07:38;;;;;;;5.30;4.10;;;;;;;7.41;79.78;99114.40;130404;1267;108839;-79
2022/09/19 04:10:46;;;;;;;5.20;3.30;;;;;;;7.37;79.87;99117.59;130629;1267;108822;-79
2022/09/19 04:13:52;;;;;;;4.90;3.80;;;;;;;7.35;79.91;99113.63;130445;1267;108763;-79
2022/09/19 04:17:00;;;;;;;8.10;4.90;;;;;;;7.37;80.45;99118.48;130531;1268;108771;-79
2022/09/19 04:20:09;;;;;;;7.70;4.70;;;;;;;7.40;80.41;99119.98;130389;1268;108676;-79
2022/09/19 04:23:44;;;;;;;6.70;4.90;;;;;;;7.44;80.29;99127.04;130115;1268;107654;-80
2022/09/19 04:27:06;;;;;;;6.20;5.00;;;;;;;7.45;80.30;99123.65;130457;1268;108787;-80
2022/09/19 04:30:25;;;;;;;7.40;4.80;;;;;;;7.44;80.42;99122.35;130552;1268;108720;-80
2022/09/19 04:33:33;;;;;;;6.80;4.70;;;;;;;7.40;80.38;99127.21;130428;1268;108817;-80
2022/09/19 04:36:39;;;;;;;6.60;5.30;;;;;;;7.44;80.62;99125.94;130502;1268;107867;-80
2022/09/19 04:39:48;;;;;;;8.30;5.70;;;;;;;7.48;80.72;99129.56;130525;1268;108858;-80
2022/09/19 04:42:54;;;;;;;9.10;6.40;;;;;;;7.52;80.68;99136.81;130561;1268;108678;-79
2022/09/19 04:46:01;;;;;;;9.30;6.50;;;;;;;7.59;80.63;99141.38;130610;1268;108864;-77
2022/09/19 04:49:14;;;;;;;10.70;7.30;;;;;;;7.62;80.76;99147.19;130429;1267;108733;-79
2022/09/19 04:52:19;;;;;;;10.30;6.10;;;;;;;7.64;81.23;99150.32;130385;1268;109058;-78
2022/09/19 04:55:25;;;;;;;8.30;5.50;;;;;;;7.71;80.98;99153.70;130448;1267;108863;-79
2022/09/19 04:58:32;;;;;;;9.60;6.20;;;;;;;7.82;81.25;99154.33;130420;1268;108721;-79
2022/09/19 05:01:39;;;;;;;7.70;6.20;;;;;;;7.95;81.07;99154.23;130645;1268;108855;-80
2022/09/19 05:04:45;;;;;;;9.20;6.40;;;;;;;8.08;81.11;99157.42;130394;1267;108758;-78
2022/09/19 05:07:51;;;;;;;7.80;6.40;;;;;;;8.18;81.10;99166.83;130466;1267;108781;-79
2022/09/19 05:10:59;;;;;;;8.00;6.50;;;;;;;8.21;80.99;99168.73;130519;1268;107661;-79
2022/09/19 05:14:06;;;;;;;9.50;5.60;;;;;;;8.25;81.11;99171.19;130634;1267;106835;-79
2022/09/19 05:17:16;;;;;;;8.20;6.00;;;;;;;8.28;81.43;99167.75;130588;1268;108649;-78
2022/09/19 05:20:21;;;;;;;6.50;5.10;;;;;;;8.36;81.46;99168.27;130519;1268;108865;-79
2022/09/19 05:23:29;;;;;;;7.50;5.30;;;;;;;8.51;81.20;99169.19;130525;1268;109066;-79
2022/09/19 05:26:37;;;;;;;11.20;5.60;;;;;;;8.61;81.05;99170.00;130581;1267;108933;-77
2022/09/19 05:29:49;;;;;;;6.30;5.60;;;;;;;8.68;81.03;99174.62;130531;1267;109335;-78
2022/09/19 05:32:59;;;;;;;9.00;6.40;;;;;;;8.68;81.05;99176.84;130484;1267;108901;-76
2022/09/19 05:36:13;;;;;;;7.40;5.10;;;;;;;8.76;81.16;99182.88;130407;1268;108886;-72
2022/09/19 05:39:31;;;;;;;7.70;5.20;;;;;;;8.86;81.07;99188.16;130483;1267;108660;-71
2022/09/19 05:42:59;;;;;;;7.90;5.20;;;;;;;8.90;80.99;99192.02;130556;1267;108317;-73
2022/09/19 05:46:08;;;;;;;7.70;5.40;;;;;;;9.02;80.94;99197.33;130447;1267;108666;-72
2022/09/19 05:49:15;;;;;;;7.70;5.10;;;;;;;9.15;80.61;99198.88;130417;1268;108692;-72
2022/09/19 05:55:45;;;;;;;6.80;5.30;;;;;;;9.37;80.76;99205.29;130422;1268;108816;-72
2022/09/19 05:59:08;;;;;;;6.80;5.10;;;;;;;9.49;80.46;99210.00;130540;1267;108676;-74
2022/09/19 06:02:15;;;;;;;5.50;4.40;;;;;;;9.57;80.54;99215.02;130573;1267;108688;-72
2022/09/19 06:05:25;;;;;;;6.50;4.10;;;;;;;9.65;80.15;99212.65;130460;1267;108690;-73
2022/09/19 06:08:31;;;;;;;6.90;5.10;;;;;;;9.77;80.02;99212.54;130501;1268;108887;-74
2022/09/19 06:11:37;;;;;;;6.10;4.80;;;;;;;9.89;80.02;99213.11;130629;1268;108295;-73
2022/09/19 06:14:43;;;;;;;7.80;5.10;;;;;;;10.04;80.04;99212.13;130430;1267;108747;-74
2022/09/19 06:17:57;;;;;;;7.70;5.10;;;;;;;10.18;79.74;99212.15;130472;1268;109029;-74
2022/09/19 06:21:19;;;;;;;8.40;5.30;;;;;;;10.21;79.31;99214.25;130518;1268;108847;-76
2022/09/19 06:24:27;;;;;;;7.00;5.30;;;;;;;10.26;79.33;99218.39;130729;1268;108766;-77
2022/09/19 06:27:35;;;;;;;6.90;5.60;;;;;;;10.26;79.36;99221.05;130460;1268;107662;-79
2022/09/19 06:30:41;;;;;;;6.00;5.30;;;;;;;10.21;79.28;99224.59;130503;1268;108927;-77
2022/09/19 06:34:02;;;;;;;6.80;4.60;;;;;;;10.19;79.58;99223.06;130522;1268;108975;-78
2022/09/19 06:37:15;;;;;;;6.00;4.60;;;;;;;10.33;79.14;99228.46;130358;1268;108719;-76
2022/09/19 06:40:22;;;;;;;5.50;4.90;;;;;;;10.52;78.97;99230.11;130435;1268;108995;-75
2022/09/19 06:43:45;;;;;;;5.90;4.80;;;;;;;10.73;79.12;99234.66;131106;1267;108735;-73
2022/09/19 06:46:58;;;;;;;7.30;4.80;;;;;;;10.94;79.02;99236.13;130636;1267;107717;-73
2022/09/19 06:50:16;;;;;;;6.00;4.90;;;;;;;11.13;78.65;99236.66;130513;1268;109505;-73
2022/09/19 06:53:36;;;;;;;6.10;4.70;;;;;;;11.25;77.99;99243.90;130617;1268;108949;-74
2022/09/19 06:56:45;;;;;;;6.30;4.90;;;;;;;11.30;77.57;99248.42;130686;1268;108864;-73
2022/09/19 06:59:53;;;;;;;6.20;4.80;;;;;;;11.28;77.32;99250.45;130687;1268;108714;-74
2022/09/19 07:03:04;;;;;;;6.10;4.90;;;;;;;11.32;77.19;99252.30;130731;1268;108040;-72
2022/09/19 07:06:10;;;;;;;6.60;5.10;;;;;;;11.40;77.11;99254.13;130625;1268;108922;-74
2022/09/19 07:09:19;;;;;;;7.40;4.90;;;;;;;11.45;77.04;99252.70;130592;1268;108762;-73
2022/09/19 07:12:24;;;;;;;5.20;4.10;;;;;;;11.53;76.96;99256.77;130601;1268;107583;-73
2022/09/19 07:15:36;;;;;;;;;;;;;;;11.70;77.14;99254.54;130689;1267;109365;-73
2022/09/19 07:18:42;;;;;;;4.60;3.30;;;;;;;12.03;77.21;99253.42;130443;1268;108903;-74
2022/09/19 07:22:06;;;;;;;4.90;4.10;;;;;;;12.31;76.25;99255.27;130669;1268;108853;-74
2022/09/19 07:25:32;;;;;;;5.10;4.00;;;;;;;12.42;76.11;99258.31;130632;1268;108699;-73
2022/09/19 07:28:40;;;;;;;6.30;4.50;;;;;;;12.47;73.94;99261.08;130697;1268;107963;-75
2022/09/19 07:31:46;;;;;;;5.60;4.50;;;;;;;12.27;73.62;99269.34;130574;1268;108638;-74
2022/09/19 07:34:51;;;;;;;6.10;4.50;;;;;;;12.19;74.57;99271.19;130652;1268;108832;-74
2022/09/19 07:37:57;;;;;;;4.70;4.10;;;;;;;12.20;74.59;99274.57;130594;1268;109003;-73
2022/09/19 07:41:14;;;;;;;4.60;3.90;;;;;;;12.20;74.90;99279.01;130455;1268;108744;-72
2022/09/19 07:44:35;;;;;;;4.90;3.80;;;;;;;12.26;74.54;99285.78;130693;1268;108838;-75
2022/09/19 07:47:51;;;;;;;5.00;4.00;;;;;;;12.29;73.99;99288.73;130549;1268;109073;-75
2022/09/19 07:51:12;;;;;;;4.50;3.90;;;;;;;12.35;74.74;99291.62;130587;1268;108700;-73
2022/09/19 07:54:18;;;;;;;5.30;3.70;;;;;;;12.52;74.67;99292.39;130513;1268;108648;-74
2022/09/19 07:57:24;;;;;;;4.80;3.80;;;;;;;12.71;74.49;99288.34;130482;1267;108743;-74
2022/09/19 08:00:31;;;;;;;4.50;3.90;;;;;;;13.00;74.12;99289.97;130499;1268;108645;-73
2022/09/19 08:03:37;;;;;;;5.20;3.40;;;;;;;13.11;72.44;99290.77;130552;1268;108854;-74
2022/09/19 08:06:42;;;;;;;4.60;3.10;;;;;;;13.27;73.63;99299.02;130407;1268;108848;-76
2022/09/19 08:09:48;;;;;;;6.20;3.70;;;;;;;13.57;73.43;99299.38;130582;1268;108717;-74
2022/09/19 08:13:02;;;;;;;3.80;3.20;;;;;;;13.83;73.03;99302.14;130732;1268;108628;-74
2022/09/19 08:16:08;;;;;;;3.90;3.10;;;;;;;13.98;72.74;99305.07;130457;1268;108881;-74
2022/09/19 08:19:15;;;;;;;3.90;3.30;;;;;;;14.11;72.73;99304.98;130532;1268;108900;-73
2022/09/19 08:22:20;;;;;;;4.30;3.40;;;;;;;14.16;71.85;99303.51;130691;1267;108744;-75
2022/09/19 08:25:34;;;;;;;3.20;2.90;;;;;;;14.19;72.13;99306.20;130650;1268;108851;-75
2022/09/19 08:28:40;;;;;;;4.40;3.00;;;;;;;14.14;70.94;99309.94;130478;1268;109077;-72
2022/09/19 08:31:46;;;;;;;4.10;2.80;;;;;;;14.15;71.80;99314.36;130579;1268;108839;-75
2022/09/19 08:34:52;;;;;;;3.50;3.00;;;;;;;14.05;69.77;99318.39;130510;1268;108775;-73
2022/09/19 08:38:00;;;;;;;5.20;3.30;;;;;;;13.93;70.54;99320.33;130614;1268;109050;-72
2022/09/19 08:41:25;;;;;;;3.10;2.80;;;;;;;13.91;70.73;99319.02;130599;1267;108534;-73
2022/09/19 08:44:48;;;;;;;4.00;3.30;;;;;;;13.84;70.27;99320.26;130614;1268;108915;-73
2022/09/19 08:47:56;;;;;;;3.60;3.10;;;;;;;13.68;69.24;99323.71;130676;1268;108879;-72
2022/09/19 08:51:12;;;;;;;4.70;3.40;;;;;;;13.53;70.26;99325.16;130606;1268;108775;-72
2022/09/19 08:54:24;;;;;;;4.10;3.70;;;;;;;13.47;70.47;99324.96;130660;1267;108968;-74
2022/09/19 08:57:31;;;;;;;;;;;;;;;13.50;70.40;99326.22;130565;1268;108896;-74
2022/09/19 09:00:43;;;;;;;6.60;3.80;;;;;;;13.45;69.37;99331.54;130503;1268;108826;-71
2022/09/19 09:04:07;;;;;;;6.90;3.30;;;;;;;13.36;70.03;99333.54;130464;1268;108845;-73
2022/09/19 09:07:29;;;;;;;4.10;3.30;;;;;;;13.37;70.25;99334.45;130680;1268;108689;-73
2022/09/19 09:11:08;;;;;;;4.20;3.30;;;;;;;13.43;69.83;99338.54;130535;1268;108832;-72
2022/09/19 09:14:26;;;;;;;3.90;2.90;;;;;;;13.49;69.98;99340.59;130575;1268;108853;-73
2022/09/19 09:17:37;;;;;;;4.30;3.20;;;;;;;13.55;69.51;99342.58;130536;1268;108751;-74
2022/09/19 09:20:53;;;;;;;5.10;3.40;;;;;;;13.54;69.80;99347.16;130378;1268;108717;-72
2022/09/19 09:24:04;;;;;;;4.60;3.50;;;;;;;13.58;69.65;99351.11;130465;1268;108791;-73
2022/09/19 09:27:23;;;;;;;4.00;3.00;;;;;;;13.63;69.24;99351.35;130468;1268;108825;-74
2022/09/19 09:30:29;;;;;;;3.60;3.20;;;;;;;13.67;68.99;99353.56;130504;1268;107739;-75
2022/09/19 09:33:46;;;;;;;4.30;3.10;;;;;;;13.53;67.54;99355.85;130634;1268;108168;-73
2022/09/19 09:36:58;;;;;;;4.00;2.80;;;;;;;13.42;68.37;99360.70;130626;1268;108851;-75
2022/09/19 09:41:44;;;;;;;4.20;2.70;;;;;;;13.32;67.63;99359.74;130482;1268;108652;-73
2022/09/19 09:43:50;;;;;;;3.60;3.10;;;;;;;13.22;67.62;99365.23;130622;1268;108858;-72
2022/09/19 09:47:03;;;;;;;4.70;2.90;;;;;;;13.17;68.42;99361.54;130387;1268;109146;-72
2022/09/19 09:50:31;;;;;;;4.40;3.00;;;;;;;13.27;68.05;99367.17;130433;1268;108926;-75
2022/09/19 09:53:51;;;;;;;4.80;3.70;;;;;;;13.28;68.27;99371.26;130356;1268;108160;-74
2022/09/19 09:57:03;;;;;;;5.20;3.90;;;;;;;13.16;67.03;99373.27;130449;1268;108871;-73
2022/09/19 10:03:49;;;;;;;5.90;3.10;;;;;;;12.73;68.31;99375.41;130439;1268;108645;-73
2022/09/19 10:07:18;;;;;;;5.00;3.30;;;;;;;12.58;67.73;99378.98;130473;1268;108780;-72
2022/09/19 10:10:31;;;;;;;7.10;3.70;;;;;;;12.46;68.80;99380.08;130496;1268;108763;-73
2022/09/19 10:13:44;;;;;;;5.20;3.90;;;;;;;12.37;68.57;99386.18;130545;1268;108919;-73
2022/09/19 10:16:53;;;;;;;6.00;3.80;;;;;;;12.11;68.73;99392.87;130501;1268;108898;-74
2022/09/19 10:20:04;;;;;;;7.60;4.30;;;;;;;11.92;68.86;99396.81;130904;1268;108986;-71
2022/09/19 10:23:15;;;;;;;5.20;3.80;;;;;;;11.82;69.21;99395.48;130483;1268;108677;-72
2022/09/19 10:26:30;;;;;;;5.40;3.70;;;;;;;11.90;69.53;99399.83;130681;1268;108664;-72
2022/09/19 10:29:44;;;;;;;7.00;4.30;;;;;;;12.02;69.24;99403.83;130745;1268;108587;-73
2022/09/19 10:32:55;;;;;;;5.00;4.10;;;;;;;12.02;69.27;99405.44;130684;1267;108770;-72
2022/09/19 10:36:25;;;;;;;6.40;5.10;;;;;;;12.09;69.17;99408.46;130543;1268;108744;-74
2022/09/19 10:39:31;;;;;;;8.70;6.10;;;;;;;12.01;69.10;99411.96;130693;1268;109542;-76
2022/09/19 10:42:40;;;;;;;7.90;5.80;;;;;;;12.02;69.37;99411.15;130484;1268;109056;-78
2022/09/19 10:45:48;;;;;;;7.90;5.30;;;;;;;12.03;68.97;99410.94;130628;1268;108874;-76
2022/09/19 10:48:59;;;;;;;7.80;5.10;;;;;;;12.07;69.26;99413.34;130469;1268;108719;-74
2022/09/19 10:52:06;;;;;;;10.70;6.30;;;;;;;12.03;68.73;99414.95;130939;1268;108734;-72
2022/09/19 10:55:20;;;;;;;8.50;5.40;;;;;;;11.90;68.99;99419.48;130538;1268;108702;-74
2022/09/19 10:58:27;;;;;;;6.70;5.10;;;;;;;11.80;68.96;99424.07;130447;1267;109171;-72
2022/09/19 11:02:22;;;;;;;8.00;4.90;;;;;;;11.64;69.58;99422.39;130474;1268;108958;-75
2022/09/19 11:05:30;;;;;;;11.20;5.80;;;;;;;11.63;69.53;99425.09;130602;1268;109051;-73
2022/09/19 11:08:44;;;;;;;6.90;4.80;;;;;;;11.67;69.62;99433.20;130639;1268;108753;-73
2022/09/19 11:11:50;;;;;;;7.30;5.90;;;;;;;11.62;69.09;99435.14;130660;1268;109007;-72
2022/09/19 11:15:18;;;;;;;9.00;5.70;;;;;;;11.64;69.50;99436.37;130582;1267;108648;-72
2022/09/19 11:18:37;;;;;;;8.10;5.90;;;;;;;11.70;69.69;99435.71;130720;1267;108914;-74
2022/09/19 11:21:56;;;;;;;9.00;5.90;;;;;;;11.90;69.55;99437.45;130583;1267;109227;-72
2022/09/19 11:25:14;;;;;;;6.70;5.30;;;;;;;11.98;69.39;99441.14;130590;1268;109475;-71
2022/09/19 11:28:29;;;;;;;8.30;6.30;;;;;;;12.01;69.60;99437.96;130676;1268;109049;-72
2022/09/19 11:31:46;;;;;;;7.40;5.40;;;;;;;12.07;69.41;99446.15;130619;1268;107708;-72
2022/09/19 11:34:59;;;;;;;6.80;4.20;;;;;;;11.98;68.55;99448.09;130854;1268;108769;-74
2022/09/19 11:38:21;;;;;;;5.10;3.70;;;;;;;11.89;69.02;99451.84;130649;1268;108758;-73
2022/09/19 11:41:37;;;;;;;6.00;3.60;;;;;;;11.96;68.69;99451.71;131834;1268;108720;-74
2022/09/19 11:44:57;;;;;;;5.30;3.60;;;;;;;11.95;68.79;99454.13;130486;1268;108975;-72
2022/09/19 11:48:28;;;;;;;5.90;4.40;;;;;;;11.95;68.72;99451.81;130425;1267;109839;-71
2022/09/19 11:51:44;;;;;;;7.40;4.10;;;;;;;12.00;68.52;99448.80;130974;1267;108708;-72
2022/09/19 11:55:06;;;;;;;4.20;3.60;;;;;;;11.96;68.56;99450.64;131522;1268;108223;-75
2022/09/19 11:58:20;;;;;;;6.90;3.80;;;;;;;11.90;68.27;99449.91;130549;1267;108604;-73
2022/09/19 12:01:41;;;;;;;6.80;3.50;;;;;;;11.81;68.54;99451.19;130455;1268;108792;-72
2022/09/19 12:04:59;;;;;;;5.50;3.10;;;;;;;11.68;68.36;99457.81;130498;1267;108643;-73
2022/09/19 12:08:33;;;;;;;4.90;3.20;;;;;;;11.71;68.79;99458.15;130501;1267;108783;-72
2022/09/19 12:11:45;;;;;;;6.10;3.80;;;;;;;11.79;68.96;99457.28;130441;1267;107773;-73
2022/09/19 12:14:56;;;;;;;4.40;3.00;;;;;;;11.87;68.99;99458.08;130446;1268;108968;-72
2022/09/19 12:18:10;;;;;;;6.00;4.10;;;;;;;11.90;69.42;99461.35;130456;1268;108726;-73
2022/09/19 12:21:22;;;;;;;5.30;3.40;;;;;;;11.94;69.73;99464.42;130447;1268;109028;-73
2022/09/19 12:28:01;;;;;;;6.70;3.90;;;;;;;12.07;69.90;99465.70;130422;1268;108989;-72
2022/09/19 12:31:12;;;;;;;4.40;3.50;;;;;;;12.11;69.89;99466.79;130446;1268;107392;-74
2022/09/19 12:34:32;;;;;;;5.50;3.70;;;;;;;11.93;70.23;99467.42;130384;1268;108783;-71
2022/09/19 12:37:47;;;;;;;6.30;3.90;;;;;;;11.91;70.54;99466.26;130432;1268;108828;-71
2022/09/19 12:40:58;;;;;;;8.90;5.90;;;;;;;11.95;70.94;99465.20;130507;1268;108696;-71
2022/09/19 12:44:12;;;;;;;7.70;5.50;;;;;;;12.02;71.04;99466.38;130458;1267;108710;-72
2022/09/19 12:47:23;;;;;;;6.80;4.70;;;;;;;12.09;71.29;99464.27;130475;1267;107648;-74
2022/09/19 12:50:44;;;;;;;16.40;9.90;;;;;;;12.15;71.27;99467.06;130361;1268;108697;-71
2022/09/19 12:54:01;;;;;;;7.10;4.10;;;;;;;12.28;71.89;99463.09;130526;1268;108721;-73
2022/09/19 12:57:16;;;;;;;5.80;4.40;;;;;;;12.48;71.43;99466.78;130440;1268;107683;-72
2022/09/19 13:00:22;;;;;;;8.10;6.50;;;;;;;12.64;71.41;99469.42;129075;1267;1909438;-72
2022/09/19 13:03:35;;;;;;;8.50;6.20;;;;;;;12.79;71.02;99465.38;130442;1268;108616;-71
2022/09/19 13:06:42;;;;;;;18.20;14.40;;;;;;;12.92;71.10;99468.59;130407;1268;108760;-72
2022/09/19 13:10:00;;;;;;;53.20;41.50;;;;;;;13.04;71.03;99471.24;130440;1268;107691;-73
2022/09/19 13:13:17;;;;;;;14.20;9.90;;;;;;;13.11;71.05;99471.83;130467;1268;108788;-72
2022/09/19 13:16:28;;;;;;;41.10;32.00;;;;;;;13.01;70.87;99469.27;130440;1268;108652;-73
2022/09/19 13:26:34;;;;;;;9.90;7.60;;;;;;;13.02;71.62;99478.83;130395;1267;108672;-74
2022/09/19 13:29:51;;;;;;;27.90;25.30;;;;;;;13.05;71.62;99477.52;130422;1267;108545;-72
2022/09/19 13:33:00;;;;;;;6.70;6.00;;;;;;;13.07;71.40;99478.90;130409;1267;108775;-73
2022/09/19 13:36:11;;;;;;;618.60;304.80;;;;;;;13.14;71.45;99481.46;130338;1268;108805;-72
2022/09/19 13:39:45;;;;;;;259.00;154.50;;;;;;;13.22;71.32;99485.09;130393;1267;108663;-72
2022/09/19 13:42:53;;;;;;;60.30;39.90;;;;;;;13.39;71.51;99485.14;130402;1268;108642;-75
2022/09/19 13:46:04;;;;;;;222.30;118.30;;;;;;;13.51;71.22;99485.63;130335;1268;108027;-71
2022/09/19 13:49:19;;;;;;;34.50;20.50;;;;;;;13.63;71.27;99492.22;130482;1268;108536;-73
2022/09/19 13:52:32;;;;;;;21.60;16.40;;;;;;;13.59;71.13;99495.23;130353;1268;107554;-74
2022/09/19 13:55:41;;;;;;;8.70;6.70;;;;;;;13.55;70.94;99499.81;130380;1268;108735;-73
2022/09/19 13:58:48;;;;;;;6.90;6.20;;;;;;;13.42;71.07;99506.48;130461;1267;108733;-71
2022/09/19 14:01:59;;;;;;;4.50;2.90;;;;;;;13.33;70.91;99506.38;130397;1267;108867;-73
2022/09/19 14:05:14;;;;;;;376.20;228.50;;;;;;;13.14;71.28;99512.90;130397;1267;109742;-72
2022/09/19 14:08:33;;;;;;;117.20;64.50;;;;;;;13.06;70.93;99511.99;130323;1268;108681;-72
2022/09/19 14:11:39;;;;;;;37.40;22.60;;;;;;;12.88;70.91;99506.50;130375;1267;108149;-71
2022/09/19 14:14:57;;;;;;;11.80;7.90;;;;;;;12.79;71.59;99505.30;130368;1268;108737;-71
2022/09/19 14:18:39;;;;;;;7.40;5.30;;;;;;;12.69;71.35;99504.34;130395;1268;107462;-72
2022/09/19 14:22:02;;;;;;;6.60;3.70;;;;;;;12.67;71.69;99502.30;130424;1267;108142;-72
2022/09/19 14:25:18;;;;;;;4.10;2.10;;;;;;;12.72;71.80;99503.44;130437;1268;108664;-72
2022/09/19 14:28:44;;;;;;;6.40;3.70;;;;;;;12.83;71.79;99502.59;130258;1268;109576;-72
2022/09/19 14:32:00;;;;;;;50.50;34.00;;;;;;;12.93;71.53;99505.90;130458;1268;107512;-71
2022/09/19 14:35:35;;;;;;;18.10;13.70;;;;;;;13.01;71.53;99502.68;130404;1267;108756;-72
2022/09/19 14:39:11;;;;;;;6.70;5.90;;;;;;;13.08;71.55;99506.15;130379;1268;108713;-73
2022/09/19 14:42:40;;;;;;;63.90;40.40;;;;;;;13.12;71.51;99501.34;130455;1267;109723;-72
2022/09/19 14:46:09;;;;;;;16.20;11.60;;;;;;;13.11;71.62;99501.08;130502;1268;108811;-72
2022/09/19 14:49:21;;;;;;;6.60;4.00;;;;;;;13.08;71.74;99501.41;130426;1268;106913;-73
2022/09/19 14:52:30;;;;;;;4.80;2.80;;;;;;;13.08;71.73;99499.32;130388;1268;108778;-73
2022/09/19 14:55:46;;;;;;;12.00;8.00;;;;;;;13.05;71.75;99499.65;130409;1268;108520;-74
2022/09/19 14:58:55;;;;;;;11.50;10.30;;;;;;;13.01;71.68;99501.58;130389;1268;108510;-71
2022/09/19 15:02:18;;;;;;;6.90;5.10;;;;;;;12.95;71.89;99500.11;130457;1268;109704;-71
2022/09/19 15:05:26;;;;;;;18.30;11.40;;;;;;;12.87;71.89;99502.71;130423;1267;108673;-72
2022/09/19 15:08:33;;;;;;;55.40;28.00;;;;;;;12.77;71.85;99504.33;130412;1268;108790;-72
2022/09/19 15:11:48;;;;;;;47.80;28.90;;;;;;;12.69;72.00;99504.95;130371;1267;108744;-73
2022/09/19 15:14:56;;;;;;;43.70;28.20;;;;;;;12.63;71.96;99512.16;130405;1268;107872;-72